| time (UTC) | temp C | wind direction | speed KPH | gust KPH | rain 1hr cm | rain 24hr cm | rain mn cm | humidity % | barometer mb |
| 20260505170535 | 26 | 175 | 8.0 | 25.7 | 0.00 | 0.00 | 0.00 | 36 | 1008.9 |
| 20260505165534 | 26 | 225 | 6.4 | 19.3 | 0.00 | 0.00 | 0.00 | 36 | 1009.0 |
| 20260505165037 | 26 | 268 | 6.4 | 17.7 | 0.00 | 0.00 | 0.00 | 35 | 1009.0 |
| 20260505164550 | 26 | 251 | 6.4 | 19.3 | 0.00 | 0.00 | 0.00 | 39 | 1009.2 |
| 20260505164034 | 26 | 243 | 3.2 | 19.3 | 0.00 | 0.00 | 0.00 | 39 | 1009.3 |
| 20260505163535 | 26 | 324 | 8.0 | 19.3 | 0.00 | 0.00 | 0.00 | 40 | 1009.5 |
| 20260505163052 | 26 | 288 | 4.8 | 12.9 | 0.00 | 0.00 | 0.00 | 40 | 1009.5 |
| 20260505162535 | 26 | 250 | 3.2 | 12.9 | 0.00 | 0.00 | 0.00 | 42 | 1009.5 |
| 20260505162035 | 26 | 205 | 4.8 | 14.5 | 0.00 | 0.00 | 0.00 | 41 | 1009.6 |
| 20260505161547 | 26 | 255 | 6.4 | 14.5 | 0.00 | 0.00 | 0.00 | 41 | 1009.6 |
| 20260505161035 | 26 | 312 | 4.8 | 14.5 | 0.00 | 0.00 | 0.00 | 44 | 1009.7 |
| 20260505160537 | 26 | 290 | 4.8 | 14.5 | 0.00 | 0.00 | 0.00 | 41 | 1009.7 |
| 20260505153049 | 24 | 259 | 4.8 | 16.1 | 0.00 | 0.00 | 0.00 | 46 | 1009.8 |
| 20260505152535 | 24 | 225 | 3.2 | 16.1 | 0.00 | 0.00 | 0.00 | 45 | 1009.7 |
| 20260505152034 | 24 | 178 | 6.4 | 16.1 | 0.00 | 0.00 | 0.00 | 44 | 1009.7 |
| 20260505151556 | 24 | 300 | 3.2 | 9.7 | 0.00 | 0.00 | 0.00 | 46 | 1009.7 |
| 20260505151034 | 24 | 242 | 3.2 | 9.7 | 0.00 | 0.00 | 0.00 | 46 | 1009.7 |
| 20260505150537 | 23 | 276 | 3.2 | 14.5 | 0.00 | 0.00 | 0.00 | 49 | 1009.7 |
| 20260505140535 | 21 | 207 | 1.6 | 11.3 | 0.00 | 0.00 | 0.00 | 53 | 1010.4 |
| 20260505125037 | 18 | 260 | 3.2 | 8.0 | 0.00 | 0.00 | 0.00 | 62 | 1011.0 |
| 20260505124543 | 18 | 207 | 1.6 | 4.8 | 0.00 | 0.00 | 0.00 | 63 | 1011.1 |
| 20260505124038 | 18 | 241 | 1.6 | 6.4 | 0.00 | 0.00 | 0.00 | 64 | 1011.1 |
| 20260505123538 | 17 | 246 | 1.6 | 6.4 | 0.00 | 0.00 | 0.00 | 63 | 1011.0 |
| 20260505123051 | 17 | 265 | 1.6 | 6.4 | 0.00 | 0.00 | 0.00 | 66 | 1011.0 |
| 20260505122535 | 17 | 222 | 3.2 | 6.4 | 0.00 | 0.00 | 0.00 | 66 | 1011.1 |
| 20260505122035 | 16 | 229 | 0.0 | 4.8 | 0.00 | 0.00 | 0.00 | 69 | 1011.0 |
| 20260505121611 | 16 | 295 | 0.0 | 3.2 | 0.00 | 0.00 | 0.00 | 69 | 1011.0 |
| 20260505121035 | 16 | 184 | 1.6 | 3.2 | 0.00 | 0.00 | 0.00 | 70 | 1011.0 |
| 20260505120536 | 15 | 284 | 0.0 | 3.2 | 0.00 | 0.00 | 0.00 | 72 | 1010.9 |
| 20260505120048 | 15 | 0 | 0.0 | 3.2 | 0.00 | 0.00 | 0.00 | 72 | 1010.8 |
| 20260505115539 | 15 | 0 | 0.0 | 3.2 | 0.00 | 0.00 | 0.00 | 73 | 1010.8 |
| 20260505115036 | 15 | 0 | 0.0 | 3.2 | 0.00 | 0.00 | 0.00 | 74 | 1010.7 |
| 20260505114546 | 15 | 170 | 0.0 | 3.2 | 0.00 | 0.00 | 0.00 | 72 | 1010.8 |
| 20260505114036 | 15 | 170 | 0.0 | 3.2 | 0.00 | 0.00 | 0.00 | 70 | 1010.7 |
| 20260505113536 | 15 | 170 | 0.0 | 1.6 | 0.00 | 0.00 | 0.00 | 71 | 1010.6 |
| 20260505113046 | 15 | 157 | 0.0 | 1.6 | 0.00 | 0.00 | 0.00 | 72 | 1010.6 |
| 20260505112535 | 14 | 153 | 0.0 | 3.2 | 0.00 | 0.00 | 0.00 | 74 | 1010.5 |
| 20260505112036 | 13 | 122 | 0.0 | 3.2 | 0.00 | 0.00 | 0.00 | 76 | 1010.4 |
| 20260505111548 | 12 | 0 | 0.0 | 3.2 | 0.00 | 0.00 | 0.00 | 76 | 1010.4 |
| 20260505111036 | 12 | 70 | 0.0 | 3.2 | 0.00 | 0.00 | 0.00 | 77 | 1010.4 |
| 20260505110536 | 12 | 0 | 0.0 | 3.2 | 0.00 | 0.00 | 0.00 | 76 | 1010.4 |
| 20260505102036 | 13 | 33 | 1.6 | 3.2 | 0.00 | 0.00 | 0.00 | 74 | 1009.9 |
| 20260505101554 | 13 | 324 | 0.0 | 3.2 | 0.00 | 0.00 | 0.00 | 74 | 1010.0 |
| 20260505101037 | 13 | 325 | 0.0 | 3.2 | 0.00 | 0.00 | 0.00 | 73 | 1010.0 |
| 20260505100538 | 13 | 0 | 0.0 | 3.2 | 0.00 | 0.00 | 0.00 | 73 | 1009.9 |
| 20260505100046 | 13 | 333 | 0.0 | 3.2 | 0.00 | 0.00 | 0.00 | 73 | 1009.7 |
| 20260505095537 | 13 | 0 | 0.0 | 3.2 | 0.00 | 0.00 | 0.00 | 72 | 1009.6 |
| 20260505095036 | 13 | 0 | 0.0 | 3.2 | 0.00 | 0.00 | 0.00 | 72 | 1009.7 |
| 20260505094549 | 13 | 0 | 0.0 | 3.2 | 0.00 | 0.00 | 0.00 | 72 | 1009.8 |
| 20260505094036 | 13 | 0 | 0.0 | 3.2 | 0.00 | 0.00 | 0.00 | 71 | 1009.8 |
| 20260505093536 | 13 | 330 | 0.0 | 3.2 | 0.00 | 0.00 | 0.00 | 70 | 1009.8 |
| 20260505093045 | 13 | 9 | 0.0 | 3.2 | 0.00 | 0.00 | 0.00 | 69 | 1009.8 |
| 20260505092537 | 13 | 0 | 0.0 | 3.2 | 0.00 | 0.00 | 0.00 | 68 | 1009.7 |
| 20260505092034 | 14 | 44 | 0.0 | 3.2 | 0.00 | 0.00 | 0.00 | 68 | 1009.6 |
| 20260505091550 | 14 | 0 | 0.0 | 3.2 | 0.00 | 0.00 | 0.00 | 67 | 1009.6 |
| 20260505091037 | 14 | 0 | 0.0 | 3.2 | 0.00 | 0.00 | 0.00 | 67 | 1009.5 |
| 20260505090535 | 15 | 71 | 0.0 | 3.2 | 0.00 | 0.00 | 0.00 | 66 | 1009.5 |
| 20260505090101 | 15 | 0 | 0.0 | 3.2 | 0.00 | 0.00 | 0.00 | 66 | 1009.4 |
| 20260505085537 | 15 | 291 | 0.0 | 3.2 | 0.00 | 0.00 | 0.00 | 65 | 1009.4 |
| 20260505085036 | 15 | 0 | 0.0 | 3.2 | 0.00 | 0.00 | 0.00 | 65 | 1009.3 |
| 20260505084551 | 15 | 0 | 0.0 | 3.2 | 0.00 | 0.00 | 0.00 | 65 | 1009.4 |
| 20260505084036 | 15 | 0 | 0.0 | 3.2 | 0.00 | 0.00 | 0.00 | 65 | 1009.5 |
| 20260505083535 | 15 | 0 | 0.0 | 3.2 | 0.00 | 0.00 | 0.00 | 64 | 1009.4 |
| 20260505083056 | 15 | 0 | 0.0 | 1.6 | 0.00 | 0.00 | 0.00 | 64 | 1009.5 |
| 20260505082536 | 15 | 0 | 0.0 | 1.6 | 0.00 | 0.00 | 0.00 | 64 | 1009.5 |
| 20260505082034 | 15 | 0 | 0.0 | 0.0 | 0.00 | 0.00 | 0.00 | 63 | 1009.4 |
| 20260505081548 | 16 | 0 | 0.0 | 3.2 | 0.00 | 0.00 | 0.00 | 63 | 1009.4 |
| 20260505081036 | 16 | 0 | 0.0 | 3.2 | 0.00 | 0.00 | 0.00 | 63 | 1009.4 |
| 20260505080534 | 16 | 0 | 0.0 | 3.2 | 0.00 | 0.00 | 0.00 | 63 | 1009.3 |
| 20260505080055 | 16 | 0 | 0.0 | 3.2 | 0.00 | 0.00 | 0.00 | 62 | 1009.4 |
| 20260505075537 | 16 | 0 | 0.0 | 3.2 | 0.00 | 0.00 | 0.00 | 62 | 1009.4 |
| 20260505075035 | 16 | 0 | 0.0 | 3.2 | 0.00 | 0.00 | 0.00 | 62 | 1009.3 |
| 20260505074549 | 16 | 0 | 0.0 | 3.2 | 0.00 | 0.00 | 0.00 | 61 | 1009.2 |
| 20260505074034 | 16 | 0 | 0.0 | 3.2 | 0.00 | 0.00 | 0.00 | 61 | 1009.2 |
| 20260505073534 | 16 | 298 | 0.0 | 3.2 | 0.00 | 0.00 | 0.00 | 60 | 1009.2 |
| 20260505073046 | 16 | 0 | 0.0 | 3.2 | 0.00 | 0.00 | 0.00 | 60 | 1009.1 |
| 20260505072535 | 16 | 0 | 0.0 | 3.2 | 0.00 | 0.00 | 0.00 | 60 | 1009.1 |
| 20260505072034 | 17 | 0 | 0.0 | 3.2 | 0.00 | 0.00 | 0.00 | 60 | 1009.0 |
| 20260505071545 | 17 | 0 | 0.0 | 3.2 | 0.00 | 0.00 | 0.00 | 59 | 1009.0 |
| 20260505071035 | 17 | 0 | 0.0 | 3.2 | 0.00 | 0.00 | 0.00 | 59 | 1009.0 |
| 20260505070538 | 17 | 0 | 0.0 | 4.8 | 0.00 | 0.00 | 0.00 | 59 | 1009.1 |
| 20260505070046 | 17 | 273 | 1.6 | 4.8 | 0.00 | 0.00 | 0.00 | 59 | 1009.1 |
| 20260505065535 | 17 | 0 | 0.0 | 4.8 | 0.00 | 0.00 | 0.00 | 60 | 1009.2 |
| 20260505065034 | 17 | 227 | 1.6 | 3.2 | 0.00 | 0.00 | 0.00 | 60 | 1009.1 |
| 20260505064544 | 17 | 0 | 0.0 | 3.2 | 0.00 | 0.00 | 0.00 | 59 | 1009.1 |
| 20260505064034 | 17 | 251 | 1.6 | 4.8 | 0.00 | 0.00 | 0.00 | 59 | 1009.2 |
| 20260505063535 | 17 | 244 | 1.6 | 4.8 | 0.00 | 0.00 | 0.00 | 59 | 1009.2 |
| 20260505063044 | 17 | 251 | 1.6 | 4.8 | 0.00 | 0.00 | 0.00 | 59 | 1009.2 |
| 20260505062535 | 17 | 244 | 3.2 | 4.8 | 0.00 | 0.00 | 0.00 | 59 | 1009.2 |
| 20260505062034 | 17 | 238 | 1.6 | 4.8 | 0.00 | 0.00 | 0.00 | 60 | 1009.3 |
| 20260505061549 | 17 | 232 | 1.6 | 4.8 | 0.00 | 0.00 | 0.00 | 60 | 1009.3 |
| 20260505061035 | 17 | 204 | 0.0 | 3.2 | 0.00 | 0.00 | 0.00 | 60 | 1009.3 |
| 20260505060534 | 17 | 243 | 0.0 | 3.2 | 0.00 | 0.00 | 0.00 | 60 | 1009.4 |
| 20260505060051 | 17 | 0 | 0.0 | 3.2 | 0.00 | 0.00 | 0.00 | 60 | 1009.3 |
| 20260505055535 | 17 | 240 | 1.6 | 3.2 | 0.00 | 0.00 | 0.00 | 60 | 1009.4 |
| 20260505055035 | 17 | 223 | 1.6 | 3.2 | 0.00 | 0.00 | 0.00 | 60 | 1009.4 |
| 20260505054552 | 17 | 242 | 1.6 | 3.2 | 0.00 | 0.00 | 0.00 | 60 | 1009.4 |
| 20260505054035 | 17 | 226 | 1.6 | 3.2 | 0.00 | 0.00 | 0.00 | 60 | 1009.4 |
| 20260505053534 | 17 | 236 | 1.6 | 3.2 | 0.00 | 0.00 | 0.00 | 60 | 1009.4 |
| 20260505053049 | 17 | 236 | 0.0 | 3.2 | 0.00 | 0.00 | 0.00 | 60 | 1009.4 |
| 20260505052534 | 17 | 236 | 0.0 | 3.2 | 0.00 | 0.00 | 0.00 | 60 | 1009.4 |
| 20260505052038 | 17 | 236 | 1.6 | 3.2 | 0.00 | 0.00 | 0.00 | 60 | 1009.4 |
| 20260505051545 | 16 | 336 | 1.6 | 3.2 | 0.00 | 0.00 | 0.00 | 59 | 1009.4 |
| 20260505051036 | 16 | 243 | 1.6 | 4.8 | 0.00 | 0.00 | 0.00 | 60 | 1009.4 |
| 20260505050537 | 16 | 249 | 0.0 | 4.8 | 0.00 | 0.00 | 0.00 | 60 | 1009.4 |
| 20260505041546 | 16 | 196 | 1.6 | 3.2 | 0.00 | 0.00 | 0.00 | 57 | 1009.1 |
| 20260505041037 | 16 | 219 | 1.6 | 3.2 | 0.00 | 0.00 | 0.00 | 57 | 1009.1 |
| 20260505040536 | 16 | 225 | 1.6 | 6.4 | 0.00 | 0.00 | 0.00 | 57 | 1009.1 |
| 20260505040053 | 16 | 236 | 1.6 | 6.4 | 0.00 | 0.00 | 0.00 | 57 | 1009.0 |
| 20260505035535 | 16 | 0 | 1.6 | 3.2 | 0.00 | 0.00 | 0.00 | 57 | 1009.0 |
| 20260505035035 | 16 | 265 | 1.6 | 3.2 | 0.00 | 0.00 | 0.00 | 56 | 1009.1 |
| 20260505034543 | 16 | 184 | 1.6 | 3.2 | 0.00 | 0.00 | 0.00 | 56 | 1009.1 |
| 20260505034036 | 16 | 244 | 0.0 | 3.2 | 0.00 | 0.00 | 0.00 | 55 | 1009.1 |
| 20260505033535 | 16 | 248 | 0.0 | 3.2 | 0.00 | 0.00 | 0.00 | 54 | 1009.1 |
| 20260505033106 | 17 | 0 | 0.0 | 3.2 | 0.00 | 0.00 | 0.00 | 53 | 1009.1 |
| 20260505032536 | 17 | 0 | 0.0 | 3.2 | 0.00 | 0.00 | 0.00 | 53 | 1009.1 |
| 20260505032036 | 17 | 0 | 0.0 | 3.2 | 0.00 | 0.00 | 0.00 | 52 | 1009.1 |
| 20260505031546 | 17 | 0 | 0.0 | 1.6 | 0.00 | 0.00 | 0.00 | 52 | 1009.1 |
| 20260505031036 | 17 | 0 | 0.0 | 3.2 | 0.00 | 0.00 | 0.00 | 51 | 1009.0 |
| 20260505030536 | 17 | 0 | 0.0 | 3.2 | 0.00 | 0.00 | 0.00 | 51 | 1009.1 |
| 20260505030058 | 17 | 205 | 0.0 | 4.8 | 0.00 | 0.00 | 0.00 | 51 | 1009.1 |
| 20260505025536 | 17 | 241 | 1.6 | 4.8 | 0.00 | 0.00 | 0.00 | 51 | 1009.0 |
| 20260505025035 | 17 | 242 | 1.6 | 6.4 | 0.00 | 0.00 | 0.00 | 51 | 1009.0 |
| 20260505024546 | 17 | 243 | 0.0 | 6.4 | 0.00 | 0.00 | 0.00 | 51 | 1008.9 |
| 20260505024035 | 17 | 313 | 1.6 | 4.8 | 0.00 | 0.00 | 0.00 | 50 | 1008.8 |
| 20260505023535 | 17 | 209 | 1.6 | 8.0 | 0.00 | 0.00 | 0.00 | 51 | 1008.8 |
| 20260505023058 | 17 | 205 | 3.2 | 8.0 | 0.00 | 0.00 | 0.00 | 50 | 1008.8 |
| 20260505022536 | 17 | 185 | 3.2 | 6.4 | 0.00 | 0.00 | 0.00 | 50 | 1008.7 |
| 20260505022035 | 17 | 209 | 3.2 | 9.7 | 0.00 | 0.00 | 0.00 | 50 | 1008.7 |
| 20260505021544 | 18 | 205 | 4.8 | 9.7 | 0.00 | 0.00 | 0.00 | 49 | 1008.7 |
| 20260505021035 | 18 | 202 | 4.8 | 9.7 | 0.00 | 0.00 | 0.00 | 50 | 1008.7 |
| 20260505020535 | 18 | 154 | 3.2 | 9.7 | 0.00 | 0.00 | 0.00 | 49 | 1008.7 |
| 20260505020051 | 18 | 200 | 3.2 | 11.3 | 0.00 | 0.00 | 0.00 | 49 | 1008.8 |
| 20260505015538 | 18 | 199 | 3.2 | 11.3 | 0.00 | 0.00 | 0.00 | 49 | 1008.9 |
| 20260505015038 | 18 | 206 | 3.2 | 9.7 | 0.00 | 0.00 | 0.00 | 48 | 1008.8 |
| 20260505014548 | 18 | 234 | 3.2 | 11.3 | 0.00 | 0.00 | 0.00 | 48 | 1008.7 |
| 20260505014035 | 18 | 244 | 4.8 | 11.3 | 0.00 | 0.00 | 0.00 | 48 | 1008.6 |
| 20260505013535 | 18 | 183 | 4.8 | 12.9 | 0.00 | 0.00 | 0.00 | 47 | 1008.6 |
| 20260505013047 | 18 | 170 | 4.8 | 12.9 | 0.00 | 0.00 | 0.00 | 47 | 1008.7 |
| 20260505012535 | 18 | 232 | 3.2 | 8.0 | 0.00 | 0.00 | 0.00 | 47 | 1008.8 |
| 20260505012036 | 18 | 239 | 3.2 | 8.0 | 0.00 | 0.00 | 0.00 | 47 | 1008.8 |
| 20260505011552 | 18 | 184 | 3.2 | 9.7 | 0.00 | 0.00 | 0.00 | 46 | 1008.8 |
| 20260505011036 | 19 | 220 | 4.8 | 11.3 | 0.00 | 0.00 | 0.00 | 46 | 1008.7 |
| 20260505010534 | 19 | 234 | 3.2 | 11.3 | 0.00 | 0.00 | 0.00 | 45 | 1008.6 |
| 20260505010044 | 19 | 236 | 4.8 | 12.9 | 0.00 | 0.00 | 0.00 | 45 | 1008.5 |
| 20260505005535 | 20 | 214 | 3.2 | 12.9 | 0.00 | 0.00 | 0.00 | 44 | 1008.4 |
| 20260505005035 | 20 | 225 | 4.8 | 9.7 | 0.00 | 0.00 | 0.00 | 44 | 1008.3 |
| 20260505004551 | 20 | 237 | 3.2 | 8.0 | 0.00 | 0.00 | 0.00 | 43 | 1008.3 |
| 20260505004037 | 20 | 234 | 3.2 | 8.0 | 0.00 | 0.00 | 0.00 | 43 | 1008.2 |
| 20260505003537 | 20 | 197 | 3.2 | 8.0 | 0.00 | 0.00 | 0.00 | 43 | 1008.1 |
| 20260505003044 | 20 | 227 | 1.6 | 8.0 | 0.00 | 0.00 | 0.00 | 43 | 1008.1 |
| 20260505002536 | 20 | 216 | 3.2 | 4.8 | 0.00 | 0.00 | 0.00 | 42 | 1008.2 |
| 20260505002037 | 20 | 231 | 1.6 | 6.4 | 0.00 | 0.00 | 0.00 | 42 | 1008.2 |
| 20260505001544 | 20 | 211 | 1.6 | 8.0 | 0.00 | 0.00 | 0.00 | 42 | 1008.1 |
| 20260505001035 | 20 | 232 | 3.2 | 8.0 | 0.00 | 0.00 | 0.00 | 41 | 1008.0 |
| 20260505000539 | 20 | 248 | 1.6 | 8.0 | 0.00 | 0.00 | 0.00 | 41 | 1008.1 |
| 20260505000048 | 21 | 215 | 3.2 | 8.0 | 0.00 | 0.00 | 0.00 | 40 | 1008.1 |
| 20260504235537 | 21 | 187 | 3.2 | 8.0 | 0.00 | 0.00 | 0.00 | 41 | 1008.0 |
| 20260504235039 | 21 | 207 | 3.2 | 9.7 | 0.00 | 0.00 | 0.00 | 41 | 1008.0 |
| 20260504234613 | 21 | 214 | 4.8 | 9.7 | 0.00 | 0.00 | 0.00 | 40 | 1007.9 |
| 20260504234037 | 21 | 251 | 3.2 | 9.7 | 0.00 | 0.00 | 0.00 | 40 | 1007.9 |
| 20260504233537 | 21 | 241 | 3.2 | 9.7 | 0.00 | 0.00 | 0.00 | 40 | 1007.9 |
| 20260504233050 | 21 | 242 | 4.8 | 9.7 | 0.00 | 0.00 | 0.00 | 39 | 1007.9 |
| 20260504232538 | 21 | 196 | 4.8 | 11.3 | 0.00 | 0.00 | 0.00 | 39 | 1007.9 |
| 20260504232036 | 21 | 192 | 3.2 | 12.9 | 0.00 | 0.00 | 0.00 | 40 | 1007.9 |
| 20260504231554 | 21 | 223 | 6.4 | 14.5 | 0.00 | 0.00 | 0.00 | 39 | 1007.9 |
| 20260504231036 | 21 | 139 | 4.8 | 16.1 | 0.00 | 0.00 | 0.00 | 39 | 1008.0 |
| 20260504230535 | 21 | 227 | 6.4 | 16.1 | 0.00 | 0.00 | 0.00 | 39 | 1007.9 |
| 20260504230052 | 21 | 244 | 4.8 | 12.9 | 0.00 | 0.00 | 0.00 | 39 | 1007.9 |
| 20260504225536 | 21 | 224 | 6.4 | 12.9 | 0.00 | 0.00 | 0.00 | 40 | 1007.9 |
| 20260504225035 | 21 | 159 | 3.2 | 16.1 | 0.00 | 0.00 | 0.00 | 40 | 1007.9 |
| 20260504224546 | 22 | 243 | 4.8 | 16.1 | 0.00 | 0.00 | 0.00 | 39 | 1007.9 |
| 20260504224035 | 22 | 240 | 4.8 | 12.9 | 0.00 | 0.00 | 0.00 | 38 | 1008.0 |
| 20260504223535 | 22 | 181 | 4.8 | 16.1 | 0.00 | 0.00 | 0.00 | 38 | 1008.0 |
| 20260504223049 | 22 | 211 | 4.8 | 16.1 | 0.00 | 0.00 | 0.00 | 41 | 1008.0 |
| 20260504222536 | 22 | 245 | 6.4 | 14.5 | 0.00 | 0.00 | 0.00 | 38 | 1008.0 |
| 20260504222035 | 22 | 250 | 4.8 | 11.3 | 0.00 | 0.00 | 0.00 | 38 | 1008.0 |
| 20260504221557 | 22 | 237 | 4.8 | 17.7 | 0.00 | 0.00 | 0.00 | 38 | 1008.1 |
| 20260504221036 | 22 | 196 | 8.0 | 17.7 | 0.00 | 0.00 | 0.00 | 37 | 1008.1 |
| 20260504220535 | 22 | 205 | 11.3 | 17.7 | 0.00 | 0.00 | 0.00 | 36 | 1008.1 |
| 20260504220050 | 22 | 236 | 4.8 | 12.9 | 0.00 | 0.00 | 0.00 | 38 | 1008.1 |
| 20260504215536 | 22 | 202 | 6.4 | 14.5 | 0.00 | 0.00 | 0.00 | 37 | 1008.1 |
| 20260504215035 | 22 | 209 | 6.4 | 14.5 | 0.00 | 0.00 | 0.00 | 36 | 1008.1 |
| 20260504214551 | 22 | 192 | 6.4 | 17.7 | 0.00 | 0.00 | 0.00 | 37 | 1008.1 |
| 20260504214035 | 22 | 196 | 6.4 | 17.7 | 0.00 | 0.00 | 0.00 | 37 | 1008.1 |
| 20260504213535 | 22 | 251 | 6.4 | 19.3 | 0.00 | 0.00 | 0.00 | 36 | 1008.1 |
| 20260504213100 | 22 | 189 | 4.8 | 19.3 | 0.00 | 0.00 | 0.00 | 37 | 1008.1 |
| 20260504212535 | 22 | 219 | 6.4 | 19.3 | 0.00 | 0.00 | 0.00 | 36 | 1008.1 |
| 20260504212036 | 22 | 248 | 6.4 | 16.1 | 0.00 | 0.00 | 0.00 | 37 | 1008.1 |
| 20260504211549 | 22 | 199 | 3.2 | 16.1 | 0.00 | 0.00 | 0.00 | 36 | 1008.1 |
| 20260504211035 | 22 | 254 | 8.0 | 16.1 | 0.00 | 0.00 | 0.00 | 36 | 1008.0 |
| 20260504210535 | 22 | 215 | 4.8 | 14.5 | 0.00 | 0.00 | 0.00 | 36 | 1008.0 |
| 20260504210056 | 23 | 189 | 4.8 | 14.5 | 0.00 | 0.00 | 0.00 | 37 | 1008.0 |
| 20260504205535 | 23 | 229 | 4.8 | 11.3 | 0.00 | 0.00 | 0.00 | 36 | 1008.0 |
| 20260504205035 | 23 | 291 | 3.2 | 11.3 | 0.00 | 0.00 | 0.00 | 37 | 1008.1 |
| 20260504204622 | 22 | 211 | 4.8 | 11.3 | 0.00 | 0.00 | 0.00 | 36 | 1008.1 |
| 20260504204035 | 22 | 352 | 4.8 | 14.5 | 0.00 | 0.00 | 0.00 | 37 | 1008.2 |
| 20260504203539 | 22 | 257 | 6.4 | 14.5 | 0.00 | 0.00 | 0.00 | 37 | 1008.1 |
| 20260504203045 | 22 | 299 | 6.4 | 17.7 | 0.00 | 0.00 | 0.00 | 38 | 1008.3 |
| 20260504202535 | 22 | 171 | 9.7 | 17.7 | 0.00 | 0.00 | 0.00 | 36 | 1008.3 |
| 20260504202038 | 22 | 248 | 6.4 | 16.1 | 0.00 | 0.00 | 0.00 | 37 | 1008.5 |
| 20260504201548 | 22 | 229 | 3.2 | 14.5 | 0.00 | 0.00 | 0.00 | 37 | 1008.6 |
| 20260504201036 | 22 | 230 | 6.4 | 16.1 | 0.00 | 0.00 | 0.00 | 36 | 1008.6 |
| 20260504200535 | 22 | 217 | 6.4 | 17.7 | 0.00 | 0.00 | 0.00 | 37 | 1008.6 |
| 20260504200054 | 22 | 248 | 9.7 | 17.7 | 0.00 | 0.00 | 0.00 | 36 | 1008.8 |
| 20260504195536 | 22 | 220 | 6.4 | 14.5 | 0.00 | 0.00 | 0.00 | 37 | 1008.8 |
| 20260504195041 | 22 | 177 | 8.0 | 19.3 | 0.00 | 0.00 | 0.00 | 36 | 1009.0 |
| 20260504194553 | 22 | 188 | 4.8 | 19.3 | 0.00 | 0.00 | 0.00 | 37 | 1009.0 |
| 20260504194037 | 22 | 315 | 6.4 | 14.5 | 0.00 | 0.00 | 0.00 | 37 | 1009.2 |
| 20260504193536 | 22 | 244 | 6.4 | 14.5 | 0.00 | 0.00 | 0.00 | 38 | 1009.2 |
| 20260504193047 | 22 | 239 | 6.4 | 20.9 | 0.00 | 0.00 | 0.00 | 36 | 1009.2 |
| 20260504192536 | 22 | 218 | 6.4 | 20.9 | 0.00 | 0.00 | 0.00 | 38 | 1009.3 |
| 20260504192037 | 22 | 230 | 6.4 | 16.1 | 0.00 | 0.00 | 0.00 | 37 | 1009.4 |
| 20260504191550 | 22 | 236 | 3.2 | 19.3 | 0.00 | 0.00 | 0.00 | 40 | 1009.5 |
| 20260504191037 | 22 | 257 | 6.4 | 20.9 | 0.00 | 0.00 | 0.00 | 37 | 1009.6 |
| 20260504190536 | 22 | 112 | 8.0 | 20.9 | 0.00 | 0.00 | 0.00 | 36 | 1009.6 |
| 20260504190057 | 22 | 246 | 4.8 | 12.9 | 0.00 | 0.00 | 0.00 | 37 | 1009.7 |
| 20260504185536 | 22 | 190 | 4.8 | 19.3 | 0.00 | 0.00 | 0.00 | 38 | 1009.8 |
| 20260504185037 | 22 | 211 | 4.8 | 17.7 | 0.00 | 0.00 | 0.00 | 36 | 1010.0 |
| 20260504184604 | 22 | 192 | 4.8 | 19.3 | 0.00 | 0.00 | 0.00 | 40 | 1010.0 |
| 20260504184037 | 22 | 183 | 3.2 | 19.3 | 0.00 | 0.00 | 0.00 | 36 | 1010.0 |
| 20260504183538 | 22 | 225 | 6.4 | 19.3 | 0.00 | 0.00 | 0.00 | 37 | 1010.1 |
| 20260504183053 | 22 | 242 | 6.4 | 16.1 | 0.00 | 0.00 | 0.00 | 37 | 1010.1 |
| 20260504182539 | 22 | 239 | 3.2 | 11.3 | 0.00 | 0.00 | 0.00 | 38 | 1010.2 |
| 20260504182036 | 21 | 242 | 4.8 | 17.7 | 0.00 | 0.00 | 0.00 | 38 | 1010.2 |
| 20260504181557 | 22 | 239 | 8.0 | 17.7 | 0.00 | 0.00 | 0.00 | 36 | 1010.3 |
| 20260504181037 | 22 | 248 | 3.2 | 19.3 | 0.00 | 0.00 | 0.00 | 38 | 1010.3 |
| 20260504180537 | 22 | 121 | 4.8 | 19.3 | 0.00 | 0.00 | 0.00 | 35 | 1010.4 |
| 20260504180053 | 21 | 338 | 3.2 | 14.5 | 0.00 | 0.00 | 0.00 | 37 | 1010.5 |
| 20260504175537 | 21 | 274 | 6.4 | 14.5 | 0.00 | 0.00 | 0.00 | 38 | 1010.5 |
| 20260504175042 | 21 | 242 | 3.2 | 12.9 | 0.00 | 0.00 | 0.00 | 37 | 1010.6 |
| 20260504174550 | 21 | 246 | 4.8 | 12.9 | 0.00 | 0.00 | 0.00 | 37 | 1010.7 |
| 20260504174037 | 21 | 243 | 6.4 | 12.9 | 0.00 | 0.00 | 0.00 | 37 | 1010.6 |
| 20260504173536 | 21 | 180 | 4.8 | 11.3 | 0.00 | 0.00 | 0.00 | 40 | 1010.6 |
| 20260504173046 | 21 | 251 | 3.2 | 16.1 | 0.00 | 0.00 | 0.00 | 37 | 1010.7 |
| 20260504172536 | 21 | 271 | 3.2 | 16.1 | 0.00 | 0.00 | 0.00 | 38 | 1010.7 |
| 20260504172036 | 21 | 251 | 4.8 | 14.5 | 0.00 | 0.00 | 0.00 | 38 | 1010.8 |
| 20260504171549 | 21 | 200 | 3.2 | 16.1 | 0.00 | 0.00 | 0.00 | 37 | 1010.9 |
| 20260504171037 | 21 | 352 | 6.4 | 17.7 | 0.00 | 0.00 | 0.00 | 36 | 1011.0 |